sensor_id;sensor_type;location;lat;lon;timestamp;P1;durP1;ratioP1;P2;durP2;ratioP2
20727;SDS011;10525;50.154;8.198;2023-04-29T00:00:16;2.80;;;2.65;;
20727;SDS011;10525;50.154;8.198;2023-04-29T00:02:44;2.83;;;2.72;;
20727;SDS011;10525;50.154;8.198;2023-04-29T00:05:11;4.43;;;2.45;;
20727;SDS011;10525;50.154;8.198;2023-04-29T00:07:38;2.20;;;2.20;;
20727;SDS011;10525;50.154;8.198;2023-04-29T00:10:06;3.38;;;2.80;;
20727;SDS011;10525;50.154;8.198;2023-04-29T00:12:34;3.42;;;2.50;;
20727;SDS011;10525;50.154;8.198;2023-04-29T00:15:01;2.65;;;2.45;;
20727;SDS011;10525;50.154;8.198;2023-04-29T00:17:30;2.70;;;2.58;;
20727;SDS011;10525;50.154;8.198;2023-04-29T00:19:57;2.65;;;2.58;;
20727;SDS011;10525;50.154;8.198;2023-04-29T00:22:24;7.07;;;4.50;;
20727;SDS011;10525;50.154;8.198;2023-04-29T00:24:51;4.55;;;2.60;;
20727;SDS011;10525;50.154;8.198;2023-04-29T00:27:18;3.13;;;3.03;;
20727;SDS011;10525;50.154;8.198;2023-04-29T00:29:46;2.78;;;2.67;;
20727;SDS011;10525;50.154;8.198;2023-04-29T00:32:13;2.90;;;2.80;;
20727;SDS011;10525;50.154;8.198;2023-04-29T00:34:40;4.07;;;3.20;;
20727;SDS011;10525;50.154;8.198;2023-04-29T00:37:08;3.45;;;2.88;;
20727;SDS011;10525;50.154;8.198;2023-04-29T00:39:35;2.85;;;2.70;;
20727;SDS011;10525;50.154;8.198;2023-04-29T00:42:02;3.72;;;2.80;;
20727;SDS011;10525;50.154;8.198;2023-04-29T00:44:29;2.83;;;2.72;;
20727;SDS011;10525;50.154;8.198;2023-04-29T00:46:57;2.72;;;2.63;;
20727;SDS011;10525;50.154;8.198;2023-04-29T00:49:24;3.78;;;2.95;;
20727;SDS011;10525;50.154;8.198;2023-04-29T00:51:52;3.00;;;2.80;;
20727;SDS011;10525;50.154;8.198;2023-04-29T00:54:19;2.85;;;2.75;;
20727;SDS011;10525;50.154;8.198;2023-04-29T00:56:46;4.82;;;2.88;;
20727;SDS011;10525;50.154;8.198;2023-04-29T00:59:14;2.85;;;2.75;;
20727;SDS011;10525;50.154;8.198;2023-04-29T01:01:41;3.05;;;2.88;;
20727;SDS011;10525;50.154;8.198;2023-04-29T01:04:10;4.18;;;3.05;;
20727;SDS011;10525;50.154;8.198;2023-04-29T01:06:40;4.07;;;2.78;;
20727;SDS011;10525;50.154;8.198;2023-04-29T01:09:16;3.22;;;2.90;;
20727;SDS011;10525;50.154;8.198;2023-04-29T01:11:48;2.95;;;2.85;;
20727;SDS011;10525;50.154;8.198;2023-04-29T01:14:19;4.60;;;4.30;;
20727;SDS011;10525;50.154;8.198;2023-04-29T01:16:48;3.97;;;3.67;;
20727;SDS011;10525;50.154;8.198;2023-04-29T01:19:25;3.88;;;3.67;;
20727;SDS011;10525;50.154;8.198;2023-04-29T01:21:55;4.38;;;4.18;;
20727;SDS011;10525;50.154;8.198;2023-04-29T01:24:24;5.38;;;4.97;;
20727;SDS011;10525;50.154;8.198;2023-04-29T01:26:53;4.93;;;4.65;;
20727;SDS011;10525;50.154;8.198;2023-04-29T01:29:25;4.07;;;3.88;;
20727;SDS011;10525;50.154;8.198;2023-04-29T01:31:57;4.40;;;4.18;;
20727;SDS011;10525;50.154;8.198;2023-04-29T01:34:29;5.95;;;5.45;;
20727;SDS011;10525;50.154;8.198;2023-04-29T01:36:59;10.65;;;7.03;;
20727;SDS011;10525;50.154;8.198;2023-04-29T01:39:31;8.77;;;7.57;;
20727;SDS011;10525;50.154;8.198;2023-04-29T01:42:01;9.57;;;8.48;;
20727;SDS011;10525;50.154;8.198;2023-04-29T01:44:30;8.30;;;7.28;;
20727;SDS011;10525;50.154;8.198;2023-04-29T01:46:58;8.10;;;7.30;;
20727;SDS011;10525;50.154;8.198;2023-04-29T01:49:27;9.35;;;8.00;;
20727;SDS011;10525;50.154;8.198;2023-04-29T01:51:54;9.85;;;8.07;;
20727;SDS011;10525;50.154;8.198;2023-04-29T01:54:21;10.20;;;7.70;;
20727;SDS011;10525;50.154;8.198;2023-04-29T01:56:49;12.68;;;9.23;;
20727;SDS011;10525;50.154;8.198;2023-04-29T01:59:16;11.05;;;8.45;;
20727;SDS011;10525;50.154;8.198;2023-04-29T02:01:44;17.23;;;10.48;;
20727;SDS011;10525;50.154;8.198;2023-04-29T02:04:11;14.93;;;10.30;;
20727;SDS011;10525;50.154;8.198;2023-04-29T02:06:39;15.20;;;9.85;;
20727;SDS011;10525;50.154;8.198;2023-04-29T02:09:06;19.83;;;9.43;;
20727;SDS011;10525;50.154;8.198;2023-04-29T02:11:33;16.48;;;9.85;;
20727;SDS011;10525;50.154;8.198;2023-04-29T02:14:01;16.25;;;10.48;;
20727;SDS011;10525;50.154;8.198;2023-04-29T02:16:28;14.40;;;10.07;;
20727;SDS011;10525;50.154;8.198;2023-04-29T02:18:55;19.38;;;11.20;;
20727;SDS011;10525;50.154;8.198;2023-04-29T02:21:22;17.40;;;10.70;;
20727;SDS011;10525;50.154;8.198;2023-04-29T02:23:51;18.85;;;10.65;;
20727;SDS011;10525;50.154;8.198;2023-04-29T02:26:19;15.88;;;10.32;;
20727;SDS011;10525;50.154;8.198;2023-04-29T02:28:46;21.80;;;11.52;;
20727;SDS011;10525;50.154;8.198;2023-04-29T02:31:14;19.17;;;11.77;;
20727;SDS011;10525;50.154;8.198;2023-04-29T02:33:41;27.42;;;14.32;;
20727;SDS011;10525;50.154;8.198;2023-04-29T02:36:08;24.33;;;13.57;;
20727;SDS011;10525;50.154;8.198;2023-04-29T02:38:35;23.45;;;13.90;;
20727;SDS011;10525;50.154;8.198;2023-04-29T02:41:03;25.40;;;14.13;;
20727;SDS011;10525;50.154;8.198;2023-04-29T02:43:30;28.33;;;14.55;;
20727;SDS011;10525;50.154;8.198;2023-04-29T02:45:57;24.98;;;14.15;;
20727;SDS011;10525;50.154;8.198;2023-04-29T02:48:25;27.13;;;14.35;;
20727;SDS011;10525;50.154;8.198;2023-04-29T02:50:52;19.17;;;12.18;;
20727;SDS011;10525;50.154;8.198;2023-04-29T02:53:19;25.33;;;14.70;;
20727;SDS011;10525;50.154;8.198;2023-04-29T02:55:47;26.42;;;13.90;;
20727;SDS011;10525;50.154;8.198;2023-04-29T02:58:14;24.63;;;14.52;;
20727;SDS011;10525;50.154;8.198;2023-04-29T03:00:41;45.13;;;16.63;;
20727;SDS011;10525;50.154;8.198;2023-04-29T03:03:08;29.98;;;14.52;;
20727;SDS011;10525;50.154;8.198;2023-04-29T03:05:37;27.10;;;15.82;;
20727;SDS011;10525;50.154;8.198;2023-04-29T03:08:04;27.95;;;15.57;;
20727;SDS011;10525;50.154;8.198;2023-04-29T03:10:31;29.75;;;15.85;;
20727;SDS011;10525;50.154;8.198;2023-04-29T03:12:58;30.30;;;16.63;;
20727;SDS011;10525;50.154;8.198;2023-04-29T03:15:25;26.65;;;16.08;;
20727;SDS011;10525;50.154;8.198;2023-04-29T03:17:52;27.83;;;16.38;;
20727;SDS011;10525;50.154;8.198;2023-04-29T03:20:19;34.22;;;17.65;;
20727;SDS011;10525;50.154;8.198;2023-04-29T03:22:48;30.50;;;16.77;;
20727;SDS011;10525;50.154;8.198;2023-04-29T03:25:15;35.22;;;17.05;;
20727;SDS011;10525;50.154;8.198;2023-04-29T03:27:42;32.78;;;17.27;;
20727;SDS011;10525;50.154;8.198;2023-04-29T03:30:10;31.95;;;16.88;;
20727;SDS011;10525;50.154;8.198;2023-04-29T03:32:37;37.88;;;18.20;;
20727;SDS011;10525;50.154;8.198;2023-04-29T03:35:04;33.80;;;18.20;;
20727;SDS011;10525;50.154;8.198;2023-04-29T03:37:31;35.30;;;16.95;;
20727;SDS011;10525;50.154;8.198;2023-04-29T03:40:00;32.42;;;18.05;;
20727;SDS011;10525;50.154;8.198;2023-04-29T03:42:27;29.00;;;16.58;;
20727;SDS011;10525;50.154;8.198;2023-04-29T03:44:54;37.38;;;18.02;;
20727;SDS011;10525;50.154;8.198;2023-04-29T03:47:21;36.78;;;18.02;;
20727;SDS011;10525;50.154;8.198;2023-04-29T03:49:48;34.63;;;17.98;;
20727;SDS011;10525;50.154;8.198;2023-04-29T03:52:15;34.00;;;16.70;;
20727;SDS011;10525;50.154;8.198;2023-04-29T03:54:42;33.22;;;17.25;;
20727;SDS011;10525;50.154;8.198;2023-04-29T03:57:10;30.50;;;16.38;;
20727;SDS011;10525;50.154;8.198;2023-04-29T03:59:37;33.17;;;15.93;;
20727;SDS011;10525;50.154;8.198;2023-04-29T04:02:05;29.92;;;16.67;;
20727;SDS011;10525;50.154;8.198;2023-04-29T04:04:32;29.35;;;15.85;;
20727;SDS011;10525;50.154;8.198;2023-04-29T04:06:59;33.72;;;17.27;;
20727;SDS011;10525;50.154;8.198;2023-04-29T04:09:27;31.58;;;16.00;;
20727;SDS011;10525;50.154;8.198;2023-04-29T04:11:54;34.40;;;17.08;;
20727;SDS011;10525;50.154;8.198;2023-04-29T04:14:23;33.85;;;16.52;;
20727;SDS011;10525;50.154;8.198;2023-04-29T04:16:50;35.17;;;17.42;;
20727;SDS011;10525;50.154;8.198;2023-04-29T04:19:17;34.47;;;16.60;;
20727;SDS011;10525;50.154;8.198;2023-04-29T04:21:44;31.17;;;16.92;;
20727;SDS011;10525;50.154;8.198;2023-04-29T04:24:11;41.75;;;17.90;;
20727;SDS011;10525;50.154;8.198;2023-04-29T04:26:38;38.50;;;18.00;;
20727;SDS011;10525;50.154;8.198;2023-04-29T04:29:06;35.58;;;16.95;;
20727;SDS011;10525;50.154;8.198;2023-04-29T04:31:34;34.50;;;17.10;;
20727;SDS011;10525;50.154;8.198;2023-04-29T04:34:02;36.92;;;17.98;;
20727;SDS011;10525;50.154;8.198;2023-04-29T04:36:29;36.28;;;17.70;;
20727;SDS011;10525;50.154;8.198;2023-04-29T04:38:56;39.15;;;17.35;;
20727;SDS011;10525;50.154;8.198;2023-04-29T04:41:23;36.22;;;16.23;;
20727;SDS011;10525;50.154;8.198;2023-04-29T04:43:51;34.00;;;16.52;;
20727;SDS011;10525;50.154;8.198;2023-04-29T04:46:19;32.75;;;15.68;;
20727;SDS011;10525;50.154;8.198;2023-04-29T04:48:47;33.33;;;16.38;;
20727;SDS011;10525;50.154;8.198;2023-04-29T04:51:15;38.05;;;16.35;;
20727;SDS011;10525;50.154;8.198;2023-04-29T04:53:42;33.80;;;17.52;;
20727;SDS011;10525;50.154;8.198;2023-04-29T04:56:09;33.85;;;16.15;;
20727;SDS011;10525;50.154;8.198;2023-04-29T04:58:36;26.10;;;14.38;;
20727;SDS011;10525;50.154;8.198;2023-04-29T05:01:03;28.33;;;14.05;;
20727;SDS011;10525;50.154;8.198;2023-04-29T05:03:30;28.83;;;15.15;;
20727;SDS011;10525;50.154;8.198;2023-04-29T05:05:59;31.67;;;15.00;;
20727;SDS011;10525;50.154;8.198;2023-04-29T05:08:26;25.02;;;13.27;;
20727;SDS011;10525;50.154;8.198;2023-04-29T05:10:53;32.83;;;14.27;;
20727;SDS011;10525;50.154;8.198;2023-04-29T05:13:21;28.50;;;13.65;;
20727;SDS011;10525;50.154;8.198;2023-04-29T05:15:49;29.48;;;13.88;;
20727;SDS011;10525;50.154;8.198;2023-04-29T05:18:16;25.70;;;12.15;;
20727;SDS011;10525;50.154;8.198;2023-04-29T05:20:43;23.30;;;12.23;;
20727;SDS011;10525;50.154;8.198;2023-04-29T05:23:12;25.52;;;13.07;;
20727;SDS011;10525;50.154;8.198;2023-04-29T05:25:39;23.23;;;11.80;;
20727;SDS011;10525;50.154;8.198;2023-04-29T05:28:06;22.55;;;11.80;;
20727;SDS011;10525;50.154;8.198;2023-04-29T05:30:33;23.67;;;12.70;;
20727;SDS011;10525;50.154;8.198;2023-04-29T05:33:01;22.98;;;11.73;;
20727;SDS011;10525;50.154;8.198;2023-04-29T05:35:28;21.10;;;11.55;;
20727;SDS011;10525;50.154;8.198;2023-04-29T05:37:56;24.33;;;12.55;;
20727;SDS011;10525;50.154;8.198;2023-04-29T05:40:24;27.38;;;13.07;;
20727;SDS011;10525;50.154;8.198;2023-04-29T05:42:51;23.50;;;11.55;;
20727;SDS011;10525;50.154;8.198;2023-04-29T05:45:19;17.48;;;9.35;;
20727;SDS011;10525;50.154;8.198;2023-04-29T05:47:46;16.80;;;8.88;;
20727;SDS011;10525;50.154;8.198;2023-04-29T05:50:13;16.48;;;9.02;;
20727;SDS011;10525;50.154;8.198;2023-04-29T05:52:40;17.75;;;9.02;;
20727;SDS011;10525;50.154;8.198;2023-04-29T05:55:08;19.95;;;8.77;;
20727;SDS011;10525;50.154;8.198;2023-04-29T05:57:36;15.27;;;8.73;;
20727;SDS011;10525;50.154;8.198;2023-04-29T06:00:04;13.80;;;7.85;;
20727;SDS011;10525;50.154;8.198;2023-04-29T06:02:31;15.93;;;8.07;;
20727;SDS011;10525;50.154;8.198;2023-04-29T06:04:59;15.88;;;7.80;;
20727;SDS011;10525;50.154;8.198;2023-04-29T06:07:26;15.68;;;8.45;;
20727;SDS011;10525;50.154;8.198;2023-04-29T06:09:53;13.88;;;8.18;;
20727;SDS011;10525;50.154;8.198;2023-04-29T06:12:21;12.43;;;7.60;;
20727;SDS011;10525;50.154;8.198;2023-04-29T06:14:50;14.25;;;8.77;;
20727;SDS011;10525;50.154;8.198;2023-04-29T06:17:17;18.15;;;8.93;;
20727;SDS011;10525;50.154;8.198;2023-04-29T06:19:44;15.75;;;9.00;;
20727;SDS011;10525;50.154;8.198;2023-04-29T06:22:11;12.65;;;8.77;;
20727;SDS011;10525;50.154;8.198;2023-04-29T06:24:38;13.70;;;8.88;;
20727;SDS011;10525;50.154;8.198;2023-04-29T06:27:05;17.63;;;8.77;;
20727;SDS011;10525;50.154;8.198;2023-04-29T06:29:32;12.98;;;8.57;;
20727;SDS011;10525;50.154;8.198;2023-04-29T06:32:01;16.50;;;9.25;;
20727;SDS011;10525;50.154;8.198;2023-04-29T06:34:28;14.63;;;8.45;;
20727;SDS011;10525;50.154;8.198;2023-04-29T06:36:55;15.60;;;9.70;;
20727;SDS011;10525;50.154;8.198;2023-04-29T06:39:22;16.42;;;8.88;;
20727;SDS011;10525;50.154;8.198;2023-04-29T06:41:49;14.80;;;8.32;;
20727;SDS011;10525;50.154;8.198;2023-04-29T06:44:16;15.23;;;9.82;;
20727;SDS011;10525;50.154;8.198;2023-04-29T06:46:43;18.90;;;10.32;;
20727;SDS011;10525;50.154;8.198;2023-04-29T06:49:12;14.98;;;9.30;;
20727;SDS011;10525;50.154;8.198;2023-04-29T06:51:40;17.63;;;9.10;;
20727;SDS011;10525;50.154;8.198;2023-04-29T06:54:07;19.60;;;9.90;;
20727;SDS011;10525;50.154;8.198;2023-04-29T06:56:34;19.58;;;10.10;;
20727;SDS011;10525;50.154;8.198;2023-04-29T06:59:01;16.88;;;9.90;;
20727;SDS011;10525;50.154;8.198;2023-04-29T07:01:29;21.10;;;10.40;;
20727;SDS011;10525;50.154;8.198;2023-04-29T07:03:56;19.70;;;9.75;;
20727;SDS011;10525;50.154;8.198;2023-04-29T07:06:25;22.08;;;9.85;;
20727;SDS011;10525;50.154;8.198;2023-04-29T07:08:52;19.45;;;10.60;;
20727;SDS011;10525;50.154;8.198;2023-04-29T07:11:19;23.27;;;10.30;;
20727;SDS011;10525;50.154;8.198;2023-04-29T07:13:48;19.67;;;10.45;;
20727;SDS011;10525;50.154;8.198;2023-04-29T07:16:16;18.40;;;9.90;;
20727;SDS011;10525;50.154;8.198;2023-04-29T07:18:45;21.95;;;10.45;;
20727;SDS011;10525;50.154;8.198;2023-04-29T07:21:12;19.58;;;11.13;;
20727;SDS011;10525;50.154;8.198;2023-04-29T07:23:40;18.75;;;10.30;;
20727;SDS011;10525;50.154;8.198;2023-04-29T07:26:08;16.27;;;9.93;;
20727;SDS011;10525;50.154;8.198;2023-04-29T07:28:35;20.15;;;10.60;;
20727;SDS011;10525;50.154;8.198;2023-04-29T07:31:02;22.48;;;10.57;;
20727;SDS011;10525;50.154;8.198;2023-04-29T07:33:30;22.70;;;10.40;;
20727;SDS011;10525;50.154;8.198;2023-04-29T07:35:57;18.95;;;10.52;;
20727;SDS011;10525;50.154;8.198;2023-04-29T07:38:24;20.48;;;10.32;;
20727;SDS011;10525;50.154;8.198;2023-04-29T07:40:52;22.13;;;10.98;;
20727;SDS011;10525;50.154;8.198;2023-04-29T07:43:20;22.23;;;11.23;;
20727;SDS011;10525;50.154;8.198;2023-04-29T07:45:47;18.63;;;9.55;;
20727;SDS011;10525;50.154;8.198;2023-04-29T07:48:14;21.85;;;10.55;;
20727;SDS011;10525;50.154;8.198;2023-04-29T07:50:41;15.57;;;9.43;;
20727;SDS011;10525;50.154;8.198;2023-04-29T07:53:10;18.77;;;10.23;;
20727;SDS011;10525;50.154;8.198;2023-04-29T07:55:39;18.67;;;10.35;;
20727;SDS011;10525;50.154;8.198;2023-04-29T07:58:08;18.70;;;10.52;;
20727;SDS011;10525;50.154;8.198;2023-04-29T08:00:35;18.38;;;9.57;;
20727;SDS011;10525;50.154;8.198;2023-04-29T08:03:02;19.88;;;10.30;;
20727;SDS011;10525;50.154;8.198;2023-04-29T08:05:30;15.85;;;9.98;;
20727;SDS011;10525;50.154;8.198;2023-04-29T08:07:57;17.38;;;9.55;;
20727;SDS011;10525;50.154;8.198;2023-04-29T08:10:24;18.58;;;9.75;;
20727;SDS011;10525;50.154;8.198;2023-04-29T08:12:51;15.57;;;8.73;;
20727;SDS011;10525;50.154;8.198;2023-04-29T08:15:19;18.33;;;8.77;;
20727;SDS011;10525;50.154;8.198;2023-04-29T08:17:46;14.35;;;7.95;;
20727;SDS011;10525;50.154;8.198;2023-04-29T08:20:13;13.35;;;6.90;;
20727;SDS011;10525;50.154;8.198;2023-04-29T08:22:40;14.40;;;8.10;;
20727;SDS011;10525;50.154;8.198;2023-04-29T08:25:08;12.32;;;8.30;;
20727;SDS011;10525;50.154;8.198;2023-04-29T08:27:35;13.40;;;7.90;;
20727;SDS011;10525;50.154;8.198;2023-04-29T08:30:02;9.00;;;6.68;;
20727;SDS011;10525;50.154;8.198;2023-04-29T08:32:31;10.35;;;7.22;;
20727;SDS011;10525;50.154;8.198;2023-04-29T08:34:59;12.25;;;7.38;;
20727;SDS011;10525;50.154;8.198;2023-04-29T08:37:27;10.02;;;6.88;;
20727;SDS011;10525;50.154;8.198;2023-04-29T08:39:54;7.05;;;5.93;;
20727;SDS011;10525;50.154;8.198;2023-04-29T08:42:27;11.38;;;6.38;;
20727;SDS011;10525;50.154;8.198;2023-04-29T08:44:58;9.40;;;6.82;;
20727;SDS011;10525;50.154;8.198;2023-04-29T08:47:25;9.60;;;6.15;;
20727;SDS011;10525;50.154;8.198;2023-04-29T08:49:54;11.55;;;7.13;;
20727;SDS011;10525;50.154;8.198;2023-04-29T08:52:21;8.63;;;5.82;;
20727;SDS011;10525;50.154;8.198;2023-04-29T08:54:48;8.65;;;5.85;;
20727;SDS011;10525;50.154;8.198;2023-04-29T08:57:16;6.93;;;5.75;;
20727;SDS011;10525;50.154;8.198;2023-04-29T08:59:43;8.63;;;6.00;;
20727;SDS011;10525;50.154;8.198;2023-04-29T09:02:10;6.32;;;4.90;;
20727;SDS011;10525;50.154;8.198;2023-04-29T09:04:40;7.00;;;5.50;;
20727;SDS011;10525;50.154;8.198;2023-04-29T09:07:12;7.30;;;4.97;;
20727;SDS011;10525;50.154;8.198;2023-04-29T09:09:39;8.82;;;5.88;;
20727;SDS011;10525;50.154;8.198;2023-04-29T09:12:07;9.30;;;5.55;;
20727;SDS011;10525;50.154;8.198;2023-04-29T09:14:34;9.90;;;5.88;;
20727;SDS011;10525;50.154;8.198;2023-04-29T09:17:01;7.22;;;5.45;;
20727;SDS011;10525;50.154;8.198;2023-04-29T09:19:29;6.88;;;5.07;;
20727;SDS011;10525;50.154;8.198;2023-04-29T09:21:56;8.38;;;5.47;;
20727;SDS011;10525;50.154;8.198;2023-04-29T09:24:25;8.77;;;5.85;;
20727;SDS011;10525;50.154;8.198;2023-04-29T09:26:53;5.95;;;4.80;;
20727;SDS011;10525;50.154;8.198;2023-04-29T09:29:20;10.73;;;6.18;;
20727;SDS011;10525;50.154;8.198;2023-04-29T09:31:48;7.13;;;5.63;;
20727;SDS011;10525;50.154;8.198;2023-04-29T09:34:17;7.63;;;5.55;;
20727;SDS011;10525;50.154;8.198;2023-04-29T09:36:56;4.63;;;4.03;;
20727;SDS011;10525;50.154;8.198;2023-04-29T09:39:23;4.57;;;3.97;;
20727;SDS011;10525;50.154;8.198;2023-04-29T09:41:58;3.90;;;3.60;;
20727;SDS011;10525;50.154;8.198;2023-04-29T09:44:27;4.32;;;4.03;;
20727;SDS011;10525;50.154;8.198;2023-04-29T09:46:55;4.13;;;3.78;;
20727;SDS011;10525;50.154;8.198;2023-04-29T09:49:22;3.38;;;3.20;;
20727;SDS011;10525;50.154;8.198;2023-04-29T09:51:53;4.28;;;3.97;;
20727;SDS011;10525;50.154;8.198;2023-04-29T09:54:21;3.33;;;3.13;;
20727;SDS011;10525;50.154;8.198;2023-04-29T09:56:49;4.93;;;3.70;;
20727;SDS011;10525;50.154;8.198;2023-04-29T09:59:18;3.72;;;3.42;;
20727;SDS011;10525;50.154;8.198;2023-04-29T10:01:47;5.03;;;4.10;;
20727;SDS011;10525;50.154;8.198;2023-04-29T10:04:14;3.38;;;3.17;;
20727;SDS011;10525;50.154;8.198;2023-04-29T10:06:42;3.55;;;3.33;;
20727;SDS011;10525;50.154;8.198;2023-04-29T10:09:12;3.38;;;3.20;;
20727;SDS011;10525;50.154;8.198;2023-04-29T10:11:41;4.90;;;4.40;;
20727;SDS011;10525;50.154;8.198;2023-04-29T10:14:09;5.18;;;4.18;;
20727;SDS011;10525;50.154;8.198;2023-04-29T10:16:41;4.32;;;3.85;;
20727;SDS011;10525;50.154;8.198;2023-04-29T10:19:11;3.35;;;3.15;;
20727;SDS011;10525;50.154;8.198;2023-04-29T10:21:38;3.42;;;3.22;;
20727;SDS011;10525;50.154;8.198;2023-04-29T10:24:05;4.00;;;3.72;;
20727;SDS011;10525;50.154;8.198;2023-04-29T10:26:33;3.13;;;2.92;;
20727;SDS011;10525;50.154;8.198;2023-04-29T10:29:02;3.00;;;2.90;;
20727;SDS011;10525;50.154;8.198;2023-04-29T10:31:29;2.75;;;2.65;;
20727;SDS011;10525;50.154;8.198;2023-04-29T10:33:59;2.78;;;2.58;;
20727;SDS011;10525;50.154;8.198;2023-04-29T10:36:26;4.85;;;3.30;;
20727;SDS011;10525;50.154;8.198;2023-04-29T10:38:56;4.20;;;3.90;;
20727;SDS011;10525;50.154;8.198;2023-04-29T10:41:25;3.05;;;2.95;;
20727;SDS011;10525;50.154;8.198;2023-04-29T10:43:52;3.72;;;3.53;;
20727;SDS011;10525;50.154;8.198;2023-04-29T10:46:20;3.38;;;3.15;;
20727;SDS011;10525;50.154;8.198;2023-04-29T10:48:49;4.53;;;4.18;;
20727;SDS011;10525;50.154;8.198;2023-04-29T10:51:28;5.20;;;4.80;;
20727;SDS011;10525;50.154;8.198;2023-04-29T10:53:57;3.88;;;3.58;;
20727;SDS011;10525;50.154;8.198;2023-04-29T10:56:33;4.15;;;3.85;;
20727;SDS011;10525;50.154;8.198;2023-04-29T10:59:01;3.70;;;3.42;;
20727;SDS011;10525;50.154;8.198;2023-04-29T11:01:39;3.92;;;3.63;;
20727;SDS011;10525;50.154;8.198;2023-04-29T11:04:06;3.75;;;3.45;;
20727;SDS011;10525;50.154;8.198;2023-04-29T11:06:39;3.30;;;3.20;;
20727;SDS011;10525;50.154;8.198;2023-04-29T11:09:07;3.58;;;3.30;;
20727;SDS011;10525;50.154;8.198;2023-04-29T11:11:42;3.05;;;2.90;;
20727;SDS011;10525;50.154;8.198;2023-04-29T11:14:09;3.17;;;2.90;;
20727;SDS011;10525;50.154;8.198;2023-04-29T11:16:36;2.80;;;2.70;;
20727;SDS011;10525;50.154;8.198;2023-04-29T11:19:04;2.50;;;2.40;;
20727;SDS011;10525;50.154;8.198;2023-04-29T11:21:32;2.60;;;2.55;;
20727;SDS011;10525;50.154;8.198;2023-04-29T11:24:01;2.88;;;2.47;;
20727;SDS011;10525;50.154;8.198;2023-04-29T11:26:30;2.80;;;2.70;;
20727;SDS011;10525;50.154;8.198;2023-04-29T11:28:57;2.67;;;2.58;;
20727;SDS011;10525;50.154;8.198;2023-04-29T11:31:29;3.05;;;2.95;;
20727;SDS011;10525;50.154;8.198;2023-04-29T11:33:56;2.75;;;2.65;;
20727;SDS011;10525;50.154;8.198;2023-04-29T11:36:23;3.20;;;3.00;;
20727;SDS011;10525;50.154;8.198;2023-04-29T11:38:51;3.45;;;3.25;;
20727;SDS011;10525;50.154;8.198;2023-04-29T11:41:20;3.60;;;3.40;;
20727;SDS011;10525;50.154;8.198;2023-04-29T11:43:53;2.75;;;2.65;;
20727;SDS011;10525;50.154;8.198;2023-04-29T11:46:20;3.17;;;2.97;;
20727;SDS011;10525;50.154;8.198;2023-04-29T11:48:47;3.97;;;3.78;;
20727;SDS011;10525;50.154;8.198;2023-04-29T11:51:15;3.55;;;3.42;;
20727;SDS011;10525;50.154;8.198;2023-04-29T11:53:43;3.30;;;3.20;;
20727;SDS011;10525;50.154;8.198;2023-04-29T11:56:10;3.28;;;3.17;;
20727;SDS011;10525;50.154;8.198;2023-04-29T11:58:38;3.13;;;2.83;;
20727;SDS011;10525;50.154;8.198;2023-04-29T12:01:07;3.33;;;3.13;;
20727;SDS011;10525;50.154;8.198;2023-04-29T12:03:35;3.67;;;3.50;;
20727;SDS011;10525;50.154;8.198;2023-04-29T12:06:02;3.60;;;3.40;;
20727;SDS011;10525;50.154;8.198;2023-04-29T12:08:29;3.67;;;3.40;;
20727;SDS011;10525;50.154;8.198;2023-04-29T12:10:58;4.07;;;3.78;;
20727;SDS011;10525;50.154;8.198;2023-04-29T12:13:26;3.88;;;3.60;;
20727;SDS011;10525;50.154;8.198;2023-04-29T12:15:55;3.80;;;3.60;;
20727;SDS011;10525;50.154;8.198;2023-04-29T12:18:23;4.65;;;4.38;;
20727;SDS011;10525;50.154;8.198;2023-04-29T12:20:51;4.18;;;3.88;;
20727;SDS011;10525;50.154;8.198;2023-04-29T12:23:20;4.32;;;4.13;;
20727;SDS011;10525;50.154;8.198;2023-04-29T12:25:48;4.43;;;3.78;;
20727;SDS011;10525;50.154;8.198;2023-04-29T12:28:16;3.70;;;3.60;;
20727;SDS011;10525;50.154;8.198;2023-04-29T12:30:43;4.90;;;4.50;;
20727;SDS011;10525;50.154;8.198;2023-04-29T12:33:17;4.25;;;4.00;;
20727;SDS011;10525;50.154;8.198;2023-04-29T12:35:45;4.93;;;4.63;;
20727;SDS011;10525;50.154;8.198;2023-04-29T12:38:14;6.38;;;5.03;;
20727;SDS011;10525;50.154;8.198;2023-04-29T12:40:43;5.93;;;5.25;;
20727;SDS011;10525;50.154;8.198;2023-04-29T12:43:10;6.05;;;5.55;;
20727;SDS011;10525;50.154;8.198;2023-04-29T12:45:38;5.32;;;4.88;;
20727;SDS011;10525;50.154;8.198;2023-04-29T12:48:05;5.35;;;4.95;;
20727;SDS011;10525;50.154;8.198;2023-04-29T12:50:34;5.22;;;4.80;;
20727;SDS011;10525;50.154;8.198;2023-04-29T12:53:02;5.63;;;5.13;;
20727;SDS011;10525;50.154;8.198;2023-04-29T12:55:30;4.57;;;4.28;;
20727;SDS011;10525;50.154;8.198;2023-04-29T12:57:58;5.22;;;4.82;;
20727;SDS011;10525;50.154;8.198;2023-04-29T13:00:25;5.88;;;5.35;;
20727;SDS011;10525;50.154;8.198;2023-04-29T13:02:52;6.07;;;5.57;;
20727;SDS011;10525;50.154;8.198;2023-04-29T13:05:19;5.53;;;5.13;;
20727;SDS011;10525;50.154;8.198;2023-04-29T13:07:48;6.75;;;6.15;;
20727;SDS011;10525;50.154;8.198;2023-04-29T13:10:15;6.53;;;5.93;;
20727;SDS011;10525;50.154;8.198;2023-04-29T13:12:42;6.43;;;5.82;;
20727;SDS011;10525;50.154;8.198;2023-04-29T13:15:09;7.70;;;5.45;;
20727;SDS011;10525;50.154;8.198;2023-04-29T13:17:37;6.70;;;6.07;;
20727;SDS011;10525;50.154;8.198;2023-04-29T13:20:05;8.30;;;7.03;;
20727;SDS011;10525;50.154;8.198;2023-04-29T13:22:33;11.05;;;7.60;;
20727;SDS011;10525;50.154;8.198;2023-04-29T13:25:02;9.63;;;8.02;;
20727;SDS011;10525;50.154;8.198;2023-04-29T13:27:30;12.48;;;8.45;;
20727;SDS011;10525;50.154;8.198;2023-04-29T13:29:57;13.20;;;8.63;;
20727;SDS011;10525;50.154;8.198;2023-04-29T13:32:24;10.27;;;8.10;;
20727;SDS011;10525;50.154;8.198;2023-04-29T13:34:52;14.77;;;9.00;;
20727;SDS011;10525;50.154;8.198;2023-04-29T13:37:20;11.52;;;8.43;;
20727;SDS011;10525;50.154;8.198;2023-04-29T13:39:47;13.00;;;8.90;;
20727;SDS011;10525;50.154;8.198;2023-04-29T13:42:15;12.02;;;9.15;;
20727;SDS011;10525;50.154;8.198;2023-04-29T13:44:42;13.45;;;9.13;;
20727;SDS011;10525;50.154;8.198;2023-04-29T13:47:10;13.98;;;9.73;;
20727;SDS011;10525;50.154;8.198;2023-04-29T13:49:38;12.93;;;9.18;;
20727;SDS011;10525;50.154;8.198;2023-04-29T13:52:05;12.25;;;9.15;;
20727;SDS011;10525;50.154;8.198;2023-04-29T13:54:32;11.32;;;8.77;;
20727;SDS011;10525;50.154;8.198;2023-04-29T13:57:00;14.40;;;9.95;;
20727;SDS011;10525;50.154;8.198;2023-04-29T13:59:29;11.55;;;9.20;;
20727;SDS011;10525;50.154;8.198;2023-04-29T14:01:56;12.82;;;8.88;;
20727;SDS011;10525;50.154;8.198;2023-04-29T14:04:23;13.07;;;9.95;;
20727;SDS011;10525;50.154;8.198;2023-04-29T14:06:50;17.52;;;10.27;;
20727;SDS011;10525;50.154;8.198;2023-04-29T14:09:17;13.40;;;9.52;;
20727;SDS011;10525;50.154;8.198;2023-04-29T14:11:45;15.57;;;10.02;;
20727;SDS011;10525;50.154;8.198;2023-04-29T14:14:12;14.48;;;9.73;;
20727;SDS011;10525;50.154;8.198;2023-04-29T14:16:41;13.90;;;9.38;;
20727;SDS011;10525;50.154;8.198;2023-04-29T14:19:11;11.95;;;9.85;;
20727;SDS011;10525;50.154;8.198;2023-04-29T14:21:38;10.60;;;8.32;;
20727;SDS011;10525;50.154;8.198;2023-04-29T14:24:05;12.23;;;8.70;;
20727;SDS011;10525;50.154;8.198;2023-04-29T14:26:32;14.32;;;8.50;;
20727;SDS011;10525;50.154;8.198;2023-04-29T14:29:00;11.15;;;7.95;;
20727;SDS011;10525;50.154;8.198;2023-04-29T14:31:28;13.77;;;8.80;;
20727;SDS011;10525;50.154;8.198;2023-04-29T14:33:56;17.33;;;8.77;;
20727;SDS011;10525;50.154;8.198;2023-04-29T14:36:24;16.40;;;9.25;;
20727;SDS011;10525;50.154;8.198;2023-04-29T14:38:52;16.30;;;10.10;;